バクー の空港の天気 - METARとTAF

ヘイダル・アリエフ国際空港(バクー) ( UBBB / BAK ) - アゼルバイジャン バクー
飛行場実況気象(Metar)
観測時間05/17 21:00 AZT (05/17 17:00 UTC)
風向・風速南南東 4m/s
視程10km以上
天気現象
なし
気温19℃
湿度83%
気圧1006hPa
METARUBBB 171700Z 15008KT CAVOK 19/16 Q1006 R88/CLRD// NOSIG
過去の天気等 Google飛行場航空写真 Wunderground天気予報

過去48時間のMETAR

飛行場予報(TAF)
発表時間: 5/17 15:13 AZT (5/17 11:13 UTC)
予報対象時間: 17日16時 AZT ~ 18日16時 AZT
風向・風速南 7m/s
視程10km以上
なし
17日16時 AZT ~ 17日20時 AZT に一時的に
風向・風速南南東 5m/s
17日20時 AZT ~ 17日22時 AZT に徐々に
風向・風速不定 2m/s
18日0時 AZT ~ 18日8時 AZT に一時的に
風向・風速西北西 3m/s
視程4000m
天気現象もや
少しの雲 雲底高度 300m
18日8時 AZT ~ 18日10時 AZT に徐々に
風向・風速北北西 11m/s 瞬間風速 16m/s
全天の4割程度の雲 雲底高度 460m
18日10時 AZT ~ 18日16時 AZT に一時的に
風向・風速北北西 19m/s 瞬間風速 24m/s
少しの積乱雲 雲底高度 1520m
TAF UBBB 171113Z 1712/1812 18014KT CAVOK TX26/1712Z TN15/1801Z
TEMPO 1712/1716 16010KT
BECMG 1716/1718 VRB04KT
TEMPO 1720/1804 29005KT 4000 BR FEW010
BECMG 1804/1806 33022G32KT SCT015
TEMPO 1806/1812 34036G46KT FEW050CB